sensor_id;sensor_type;location;lat;lon;timestamp;P1;durP1;ratioP1;P2;durP2;ratioP2
72095;SDS011;59968;51.084;16.748;2023-09-07T04:02:30;11.10;;;6.10;;
72095;SDS011;59968;51.084;16.748;2023-09-07T04:04:59;12.60;;;5.80;;
72095;SDS011;59968;51.084;16.748;2023-09-07T04:07:28;12.60;;;7.40;;
72095;SDS011;59968;51.084;16.748;2023-09-07T04:09:56;13.80;;;8.20;;
72095;SDS011;59968;51.084;16.748;2023-09-07T04:12:24;9.60;;;6.30;;
72095;SDS011;59968;51.084;16.748;2023-09-07T04:14:52;10.80;;;6.00;;
72095;SDS011;59968;51.084;16.748;2023-09-07T04:17:20;12.80;;;7.10;;
72095;SDS011;59968;51.084;16.748;2023-09-07T04:19:48;14.60;;;7.90;;
72095;SDS011;59968;51.084;16.748;2023-09-07T04:22:15;11.20;;;7.00;;
72095;SDS011;59968;51.084;16.748;2023-09-07T04:24:49;11.80;;;7.40;;
72095;SDS011;59968;51.084;16.748;2023-09-07T04:27:19;11.30;;;7.00;;
72095;SDS011;59968;51.084;16.748;2023-09-07T04:29:49;12.60;;;7.20;;
72095;SDS011;59968;51.084;16.748;2023-09-07T04:32:17;10.50;;;7.30;;
72095;SDS011;59968;51.084;16.748;2023-09-07T04:34:46;11.40;;;7.60;;
72095;SDS011;59968;51.084;16.748;2023-09-07T04:37:15;11.10;;;7.40;;
72095;SDS011;59968;51.084;16.748;2023-09-07T04:39:42;13.20;;;7.30;;
72095;SDS011;59968;51.084;16.748;2023-09-07T04:42:10;11.10;;;7.10;;
72095;SDS011;59968;51.084;16.748;2023-09-07T04:44:37;10.30;;;6.90;;
72095;SDS011;59968;51.084;16.748;2023-09-07T04:47:05;12.20;;;7.50;;
72095;SDS011;59968;51.084;16.748;2023-09-07T04:49:32;13.60;;;7.60;;
72095;SDS011;59968;51.084;16.748;2023-09-07T04:52:04;11.90;;;6.80;;
72095;SDS011;59968;51.084;16.748;2023-09-07T04:54:35;12.80;;;7.30;;
72095;SDS011;59968;51.084;16.748;2023-09-07T04:57:06;13.20;;;7.50;;
72095;SDS011;59968;51.084;16.748;2023-09-07T04:59:35;13.40;;;7.80;;
72095;SDS011;59968;51.084;16.748;2023-09-07T05:02:03;12.10;;;8.20;;
72095;SDS011;59968;51.084;16.748;2023-09-07T05:04:31;15.80;;;8.10;;
72095;SDS011;59968;51.084;16.748;2023-09-07T05:06:59;13.70;;;8.30;;
72095;SDS011;59968;51.084;16.748;2023-09-07T05:09:29;14.10;;;8.20;;
72095;SDS011;59968;51.084;16.748;2023-09-07T05:11:58;13.60;;;8.60;;
72095;SDS011;59968;51.084;16.748;2023-09-07T05:14:26;12.90;;;9.00;;
72095;SDS011;59968;51.084;16.748;2023-09-07T05:16:56;13.70;;;8.10;;
72095;SDS011;59968;51.084;16.748;2023-09-07T05:19:24;14.60;;;8.90;;
72095;SDS011;59968;51.084;16.748;2023-09-07T05:21:52;16.70;;;9.00;;
72095;SDS011;59968;51.084;16.748;2023-09-07T05:24:22;15.10;;;9.10;;
72095;SDS011;59968;51.084;16.748;2023-09-07T05:26:50;14.20;;;9.10;;
72095;SDS011;59968;51.084;16.748;2023-09-07T05:29:18;14.50;;;9.20;;
72095;SDS011;59968;51.084;16.748;2023-09-07T05:31:47;13.80;;;9.20;;
72095;SDS011;59968;51.084;16.748;2023-09-07T05:34:14;13.70;;;9.00;;
72095;SDS011;59968;51.084;16.748;2023-09-07T05:36:42;14.00;;;9.50;;
72095;SDS011;59968;51.084;16.748;2023-09-07T05:39:09;17.00;;;10.10;;
72095;SDS011;59968;51.084;16.748;2023-09-07T05:41:37;13.60;;;9.80;;
72095;SDS011;59968;51.084;16.748;2023-09-07T05:44:04;15.40;;;9.60;;
72095;SDS011;59968;51.084;16.748;2023-09-07T05:46:32;15.70;;;10.10;;
72095;SDS011;59968;51.084;16.748;2023-09-07T05:48:59;17.40;;;9.90;;
72095;SDS011;59968;51.084;16.748;2023-09-07T05:51:26;16.70;;;9.90;;
72095;SDS011;59968;51.084;16.748;2023-09-07T05:53:54;17.10;;;10.20;;
72095;SDS011;59968;51.084;16.748;2023-09-07T05:56:22;16.70;;;10.60;;
72095;SDS011;59968;51.084;16.748;2023-09-07T05:58:50;15.60;;;10.30;;
72095;SDS011;59968;51.084;16.748;2023-09-07T06:01:17;16.50;;;11.10;;
72095;SDS011;59968;51.084;16.748;2023-09-07T06:03:44;17.80;;;11.20;;
72095;SDS011;59968;51.084;16.748;2023-09-07T06:06:14;18.10;;;11.00;;
72095;SDS011;59968;51.084;16.748;2023-09-07T06:08:41;18.40;;;10.70;;
72095;SDS011;59968;51.084;16.748;2023-09-07T06:11:09;17.80;;;11.50;;
72095;SDS011;59968;51.084;16.748;2023-09-07T06:13:37;18.00;;;11.60;;
72095;SDS011;59968;51.084;16.748;2023-09-07T06:16:04;18.90;;;10.90;;
72095;SDS011;59968;51.084;16.748;2023-09-07T06:18:32;16.00;;;10.10;;
72095;SDS011;59968;51.084;16.748;2023-09-07T06:21:00;15.20;;;10.80;;
72095;SDS011;59968;51.084;16.748;2023-09-07T06:23:29;17.50;;;10.80;;
72095;SDS011;59968;51.084;16.748;2023-09-07T06:25:59;17.70;;;11.20;;
72095;SDS011;59968;51.084;16.748;2023-09-07T06:28:28;16.90;;;10.40;;
72095;SDS011;59968;51.084;16.748;2023-09-07T06:30:57;15.80;;;10.50;;
72095;SDS011;59968;51.084;16.748;2023-09-07T06:33:25;16.80;;;10.50;;
72095;SDS011;59968;51.084;16.748;2023-09-07T06:35:53;17.40;;;10.80;;
72095;SDS011;59968;51.084;16.748;2023-09-07T06:38:20;15.00;;;10.40;;
72095;SDS011;59968;51.084;16.748;2023-09-07T06:40:48;16.70;;;10.60;;
72095;SDS011;59968;51.084;16.748;2023-09-07T06:43:18;17.40;;;10.50;;
72095;SDS011;59968;51.084;16.748;2023-09-07T06:45:46;17.10;;;10.50;;
72095;SDS011;59968;51.084;16.748;2023-09-07T06:48:14;15.90;;;10.00;;
72095;SDS011;59968;51.084;16.748;2023-09-07T06:50:45;14.50;;;10.40;;
72095;SDS011;59968;51.084;16.748;2023-09-07T06:53:14;15.90;;;9.90;;
72095;SDS011;59968;51.084;16.748;2023-09-07T06:55:41;18.30;;;10.70;;
72095;SDS011;59968;51.084;16.748;2023-09-07T06:58:13;16.00;;;10.50;;
72095;SDS011;59968;51.084;16.748;2023-09-07T07:00:41;16.30;;;10.80;;
72095;SDS011;59968;51.084;16.748;2023-09-07T07:03:10;18.50;;;10.50;;
72095;SDS011;59968;51.084;16.748;2023-09-07T07:05:38;16.30;;;10.50;;
72095;SDS011;59968;51.084;16.748;2023-09-07T07:08:06;16.10;;;10.40;;
72095;SDS011;59968;51.084;16.748;2023-09-07T07:10:34;14.30;;;10.20;;
72095;SDS011;59968;51.084;16.748;2023-09-07T07:13:01;16.20;;;10.70;;
72095;SDS011;59968;51.084;16.748;2023-09-07T07:15:30;16.90;;;10.50;;
72095;SDS011;59968;51.084;16.748;2023-09-07T07:17:57;16.80;;;11.30;;
72095;SDS011;59968;51.084;16.748;2023-09-07T07:20:24;17.20;;;11.40;;
72095;SDS011;59968;51.084;16.748;2023-09-07T07:22:52;17.50;;;10.70;;
72095;SDS011;59968;51.084;16.748;2023-09-07T07:25:19;18.30;;;10.90;;
72095;SDS011;59968;51.084;16.748;2023-09-07T07:27:47;16.40;;;10.90;;
72095;SDS011;59968;51.084;16.748;2023-09-07T07:30:14;15.80;;;11.10;;
72095;SDS011;59968;51.084;16.748;2023-09-07T07:32:41;15.00;;;10.20;;
72095;SDS011;59968;51.084;16.748;2023-09-07T07:35:09;15.40;;;10.50;;
72095;SDS011;59968;51.084;16.748;2023-09-07T07:37:37;15.20;;;10.40;;
72095;SDS011;59968;51.084;16.748;2023-09-07T07:40:05;14.70;;;9.60;;
72095;SDS011;59968;51.084;16.748;2023-09-07T07:42:35;16.40;;;10.40;;
72095;SDS011;59968;51.084;16.748;2023-09-07T07:45:05;17.30;;;9.80;;
72095;SDS011;59968;51.084;16.748;2023-09-07T07:47:33;16.60;;;10.10;;
72095;SDS011;59968;51.084;16.748;2023-09-07T07:50:00;15.20;;;9.50;;
72095;SDS011;59968;51.084;16.748;2023-09-07T07:52:27;15.30;;;9.20;;
72095;SDS011;59968;51.084;16.748;2023-09-07T07:54:56;14.80;;;9.70;;
72095;SDS011;59968;51.084;16.748;2023-09-07T07:57:23;16.40;;;9.70;;
72095;SDS011;59968;51.084;16.748;2023-09-07T07:59:51;14.40;;;9.40;;
72095;SDS011;59968;51.084;16.748;2023-09-07T08:02:18;15.00;;;9.30;;
72095;SDS011;59968;51.084;16.748;2023-09-07T08:04:46;15.50;;;9.70;;
72095;SDS011;59968;51.084;16.748;2023-09-07T08:07:14;15.50;;;9.40;;
72095;SDS011;59968;51.084;16.748;2023-09-07T08:09:42;15.90;;;9.60;;
72095;SDS011;59968;51.084;16.748;2023-09-07T08:12:10;15.30;;;9.40;;
72095;SDS011;59968;51.084;16.748;2023-09-07T08:14:39;13.90;;;9.50;;
72095;SDS011;59968;51.084;16.748;2023-09-07T08:17:06;13.20;;;8.30;;
72095;SDS011;59968;51.084;16.748;2023-09-07T08:19:36;13.20;;;8.10;;
72095;SDS011;59968;51.084;16.748;2023-09-07T08:22:05;12.20;;;8.00;;
72095;SDS011;59968;51.084;16.748;2023-09-07T08:24:33;12.20;;;7.80;;
72095;SDS011;59968;51.084;16.748;2023-09-07T08:27:01;12.80;;;8.50;;
72095;SDS011;59968;51.084;16.748;2023-09-07T08:29:28;13.90;;;8.00;;
72095;SDS011;59968;51.084;16.748;2023-09-07T08:31:58;13.30;;;7.80;;
72095;SDS011;59968;51.084;16.748;2023-09-07T08:34:30;12.40;;;8.10;;
72095;SDS011;59968;51.084;16.748;2023-09-07T08:36:58;12.60;;;7.80;;
72095;SDS011;59968;51.084;16.748;2023-09-07T08:39:26;13.00;;;7.60;;
72095;SDS011;59968;51.084;16.748;2023-09-07T08:41:54;11.40;;;7.00;;
72095;SDS011;59968;51.084;16.748;2023-09-07T08:44:29;13.20;;;7.30;;
72095;SDS011;59968;51.084;16.748;2023-09-07T08:46:57;12.70;;;6.20;;
72095;SDS011;59968;51.084;16.748;2023-09-07T08:49:26;10.90;;;7.20;;
72095;SDS011;59968;51.084;16.748;2023-09-07T08:51:57;10.50;;;6.60;;
72095;SDS011;59968;51.084;16.748;2023-09-07T08:54:26;12.10;;;7.10;;
72095;SDS011;59968;51.084;16.748;2023-09-07T08:56:56;11.20;;;6.80;;
72095;SDS011;59968;51.084;16.748;2023-09-07T08:59:24;11.20;;;7.10;;
72095;SDS011;59968;51.084;16.748;2023-09-07T09:01:55;10.80;;;6.70;;
72095;SDS011;59968;51.084;16.748;2023-09-07T09:04:25;12.30;;;6.30;;
72095;SDS011;59968;51.084;16.748;2023-09-07T09:06:54;9.90;;;5.90;;
72095;SDS011;59968;51.084;16.748;2023-09-07T09:09:24;10.60;;;5.80;;
72095;SDS011;59968;51.084;16.748;2023-09-07T09:11:52;8.20;;;5.60;;
72095;SDS011;59968;51.084;16.748;2023-09-07T09:14:19;10.70;;;5.70;;
72095;SDS011;59968;51.084;16.748;2023-09-07T09:16:52;10.40;;;6.20;;
72095;SDS011;59968;51.084;16.748;2023-09-07T09:19:29;9.10;;;6.00;;
72095;SDS011;59968;51.084;16.748;2023-09-07T09:22:01;10.80;;;5.80;;
72095;SDS011;59968;51.084;16.748;2023-09-07T09:24:33;9.90;;;5.50;;
72095;SDS011;59968;51.084;16.748;2023-09-07T09:27:02;8.40;;;5.00;;
72095;SDS011;59968;51.084;16.748;2023-09-07T09:29:33;9.00;;;5.40;;
72095;SDS011;59968;51.084;16.748;2023-09-07T09:32:05;8.90;;;5.40;;
72095;SDS011;59968;51.084;16.748;2023-09-07T09:34:37;8.00;;;5.20;;
72095;SDS011;59968;51.084;16.748;2023-09-07T09:37:12;8.00;;;5.20;;
72095;SDS011;59968;51.084;16.748;2023-09-07T09:39:40;7.40;;;5.30;;
72095;SDS011;59968;51.084;16.748;2023-09-07T09:42:09;9.50;;;5.80;;
72095;SDS011;59968;51.084;16.748;2023-09-07T09:44:38;8.20;;;5.40;;
72095;SDS011;59968;51.084;16.748;2023-09-07T09:47:07;8.10;;;5.00;;
72095;SDS011;59968;51.084;16.748;2023-09-07T09:49:36;7.30;;;4.90;;
72095;SDS011;59968;51.084;16.748;2023-09-07T09:52:05;8.90;;;4.80;;
72095;SDS011;59968;51.084;16.748;2023-09-07T09:54:35;9.70;;;5.60;;
72095;SDS011;59968;51.084;16.748;2023-09-07T09:57:03;10.20;;;5.60;;
72095;SDS011;59968;51.084;16.748;2023-09-07T09:59:30;9.10;;;5.40;;
72095;SDS011;59968;51.084;16.748;2023-09-07T10:01:58;7.80;;;5.50;;
72095;SDS011;59968;51.084;16.748;2023-09-07T10:04:27;11.20;;;5.20;;
72095;SDS011;59968;51.084;16.748;2023-09-07T10:06:58;8.70;;;5.90;;
72095;SDS011;59968;51.084;16.748;2023-09-07T10:09:37;8.20;;;5.20;;
72095;SDS011;59968;51.084;16.748;2023-09-07T10:12:05;8.10;;;5.60;;
72095;SDS011;59968;51.084;16.748;2023-09-07T10:14:42;8.20;;;4.90;;
72095;SDS011;59968;51.084;16.748;2023-09-07T10:17:20;7.80;;;5.20;;
72095;SDS011;59968;51.084;16.748;2023-09-07T10:19:49;8.80;;;5.00;;
72095;SDS011;59968;51.084;16.748;2023-09-07T10:22:21;7.80;;;5.40;;
72095;SDS011;59968;51.084;16.748;2023-09-07T10:24:57;7.10;;;4.90;;
72095;SDS011;59968;51.084;16.748;2023-09-07T10:27:25;8.00;;;5.40;;
72095;SDS011;59968;51.084;16.748;2023-09-07T10:29:52;7.10;;;4.70;;
72095;SDS011;59968;51.084;16.748;2023-09-07T10:32:23;8.50;;;5.00;;
72095;SDS011;59968;51.084;16.748;2023-09-07T10:34:50;7.10;;;4.60;;
72095;SDS011;59968;51.084;16.748;2023-09-07T10:37:17;7.40;;;4.80;;
72095;SDS011;59968;51.084;16.748;2023-09-07T10:39:44;8.00;;;5.10;;
72095;SDS011;59968;51.084;16.748;2023-09-07T10:42:22;6.10;;;4.20;;
72095;SDS011;59968;51.084;16.748;2023-09-07T10:44:53;6.60;;;4.70;;
72095;SDS011;59968;51.084;16.748;2023-09-07T10:47:21;7.30;;;5.00;;
72095;SDS011;59968;51.084;16.748;2023-09-07T10:49:48;6.70;;;4.60;;
72095;SDS011;59968;51.084;16.748;2023-09-07T10:52:16;8.70;;;4.70;;
72095;SDS011;59968;51.084;16.748;2023-09-07T10:54:43;7.00;;;5.00;;
72095;SDS011;59968;51.084;16.748;2023-09-07T10:57:12;7.30;;;4.80;;
72095;SDS011;59968;51.084;16.748;2023-09-07T10:59:46;7.80;;;4.80;;
72095;SDS011;59968;51.084;16.748;2023-09-07T11:02:14;6.80;;;5.00;;
72095;SDS011;59968;51.084;16.748;2023-09-07T11:04:43;7.00;;;4.50;;
72095;SDS011;59968;51.084;16.748;2023-09-07T11:07:11;7.60;;;4.30;;
72095;SDS011;59968;51.084;16.748;2023-09-07T11:09:40;6.20;;;4.50;;
72095;SDS011;59968;51.084;16.748;2023-09-07T11:12:08;6.80;;;4.70;;
72095;SDS011;59968;51.084;16.748;2023-09-07T11:14:39;7.70;;;4.60;;
72095;SDS011;59968;51.084;16.748;2023-09-07T11:17:07;7.10;;;4.90;;
72095;SDS011;59968;51.084;16.748;2023-09-07T11:19:36;7.20;;;5.10;;
72095;SDS011;59968;51.084;16.748;2023-09-07T11:22:03;7.40;;;5.40;;
72095;SDS011;59968;51.084;16.748;2023-09-07T11:24:31;6.20;;;4.90;;
72095;SDS011;59968;51.084;16.748;2023-09-07T11:27:02;6.80;;;5.60;;
72095;SDS011;59968;51.084;16.748;2023-09-07T11:29:32;7.50;;;4.40;;
72095;SDS011;59968;51.084;16.748;2023-09-07T11:32:09;6.80;;;4.50;;
72095;SDS011;59968;51.084;16.748;2023-09-07T11:34:47;7.40;;;5.20;;
72095;SDS011;59968;51.084;16.748;2023-09-07T11:37:22;8.20;;;5.20;;
72095;SDS011;59968;51.084;16.748;2023-09-07T11:39:50;7.60;;;5.00;;
72095;SDS011;59968;51.084;16.748;2023-09-07T11:42:18;7.60;;;4.90;;
72095;SDS011;59968;51.084;16.748;2023-09-07T11:44:45;7.00;;;5.00;;
72095;SDS011;59968;51.084;16.748;2023-09-07T11:47:13;7.40;;;4.60;;
72095;SDS011;59968;51.084;16.748;2023-09-07T11:49:41;6.60;;;4.60;;
72095;SDS011;59968;51.084;16.748;2023-09-07T11:52:09;7.10;;;5.00;;
72095;SDS011;59968;51.084;16.748;2023-09-07T11:54:36;9.10;;;4.80;;
72095;SDS011;59968;51.084;16.748;2023-09-07T11:57:04;7.10;;;4.60;;
72095;SDS011;59968;51.084;16.748;2023-09-07T11:59:31;6.70;;;4.90;;
72095;SDS011;59968;51.084;16.748;2023-09-07T12:02:14;7.90;;;5.20;;
72095;SDS011;59968;51.084;16.748;2023-09-07T12:04:43;6.70;;;5.10;;
72095;SDS011;59968;51.084;16.748;2023-09-07T12:07:10;7.40;;;4.30;;
72095;SDS011;59968;51.084;16.748;2023-09-07T12:09:37;6.40;;;4.70;;
72095;SDS011;59968;51.084;16.748;2023-09-07T12:12:05;8.90;;;5.00;;
72095;SDS011;59968;51.084;16.748;2023-09-07T12:14:33;6.80;;;4.70;;
72095;SDS011;59968;51.084;16.748;2023-09-07T12:17:00;6.30;;;4.90;;
72095;SDS011;59968;51.084;16.748;2023-09-07T12:19:28;7.00;;;4.60;;
72095;SDS011;59968;51.084;16.748;2023-09-07T12:21:55;8.20;;;4.70;;
72095;SDS011;59968;51.084;16.748;2023-09-07T12:24:23;8.50;;;4.70;;
72095;SDS011;59968;51.084;16.748;2023-09-07T12:26:51;6.40;;;4.80;;
72095;SDS011;59968;51.084;16.748;2023-09-07T12:29:19;7.00;;;4.50;;
72095;SDS011;59968;51.084;16.748;2023-09-07T12:31:48;6.30;;;4.60;;
72095;SDS011;59968;51.084;16.748;2023-09-07T12:34:15;9.80;;;4.50;;
72095;SDS011;59968;51.084;16.748;2023-09-07T12:36:43;6.50;;;4.50;;
72095;SDS011;59968;51.084;16.748;2023-09-07T12:39:10;8.10;;;4.80;;
72095;SDS011;59968;51.084;16.748;2023-09-07T12:41:39;7.90;;;5.00;;
72095;SDS011;59968;51.084;16.748;2023-09-07T12:44:07;5.90;;;4.70;;
72095;SDS011;59968;51.084;16.748;2023-09-07T12:46:36;8.50;;;4.90;;
72095;SDS011;59968;51.084;16.748;2023-09-07T12:49:06;7.00;;;4.50;;
72095;SDS011;59968;51.084;16.748;2023-09-07T12:51:36;6.00;;;4.70;;
72095;SDS011;59968;51.084;16.748;2023-09-07T12:54:04;9.20;;;4.60;;
72095;SDS011;59968;51.084;16.748;2023-09-07T12:56:33;6.50;;;4.50;;
72095;SDS011;59968;51.084;16.748;2023-09-07T12:59:01;7.50;;;4.80;;
72095;SDS011;59968;51.084;16.748;2023-09-07T13:01:31;7.10;;;4.50;;
72095;SDS011;59968;51.084;16.748;2023-09-07T13:04:00;7.00;;;5.00;;
72095;SDS011;59968;51.084;16.748;2023-09-07T13:06:27;7.10;;;5.10;;
72095;SDS011;59968;51.084;16.748;2023-09-07T13:08:55;7.70;;;4.60;;
72095;SDS011;59968;51.084;16.748;2023-09-07T13:11:23;9.90;;;5.10;;
72095;SDS011;59968;51.084;16.748;2023-09-07T13:13:50;7.80;;;4.80;;
72095;SDS011;59968;51.084;16.748;2023-09-07T13:16:20;7.20;;;5.00;;
72095;SDS011;59968;51.084;16.748;2023-09-07T13:18:48;6.00;;;4.60;;
72095;SDS011;59968;51.084;16.748;2023-09-07T13:21:15;6.50;;;4.60;;
72095;SDS011;59968;51.084;16.748;2023-09-07T13:23:42;7.20;;;4.70;;
72095;SDS011;59968;51.084;16.748;2023-09-07T13:26:10;6.50;;;4.50;;
72095;SDS011;59968;51.084;16.748;2023-09-07T13:28:38;7.00;;;4.60;;
72095;SDS011;59968;51.084;16.748;2023-09-07T13:31:05;6.60;;;4.80;;
72095;SDS011;59968;51.084;16.748;2023-09-07T13:33:32;6.40;;;4.60;;
72095;SDS011;59968;51.084;16.748;2023-09-07T13:36:00;6.40;;;4.80;;
72095;SDS011;59968;51.084;16.748;2023-09-07T13:38:28;7.00;;;5.10;;
72095;SDS011;59968;51.084;16.748;2023-09-07T13:40:54;6.50;;;4.50;;
72095;SDS011;59968;51.084;16.748;2023-09-07T13:43:21;6.80;;;5.00;;
72095;SDS011;59968;51.084;16.748;2023-09-07T13:45:49;6.60;;;4.30;;
72095;SDS011;59968;51.084;16.748;2023-09-07T13:48:17;6.40;;;4.60;;
72095;SDS011;59968;51.084;16.748;2023-09-07T13:50:44;6.50;;;4.20;;
72095;SDS011;59968;51.084;16.748;2023-09-07T13:53:11;6.60;;;5.00;;
72095;SDS011;59968;51.084;16.748;2023-09-07T13:55:39;7.10;;;4.30;;
72095;SDS011;59968;51.084;16.748;2023-09-07T13:58:08;6.40;;;4.40;;
72095;SDS011;59968;51.084;16.748;2023-09-07T14:00:35;5.50;;;4.30;;
72095;SDS011;59968;51.084;16.748;2023-09-07T14:03:02;6.00;;;4.40;;
72095;SDS011;59968;51.084;16.748;2023-09-07T14:05:30;6.00;;;4.50;;
72095;SDS011;59968;51.084;16.748;2023-09-07T14:07:57;6.80;;;4.40;;
72095;SDS011;59968;51.084;16.748;2023-09-07T14:10:24;6.40;;;4.70;;
72095;SDS011;59968;51.084;16.748;2023-09-07T14:12:51;5.80;;;4.30;;
72095;SDS011;59968;51.084;16.748;2023-09-07T14:15:18;6.40;;;4.40;;
72095;SDS011;59968;51.084;16.748;2023-09-07T14:17:45;5.90;;;4.30;;
72095;SDS011;59968;51.084;16.748;2023-09-07T14:20:12;7.40;;;5.10;;
72095;SDS011;59968;51.084;16.748;2023-09-07T14:22:40;5.20;;;4.10;;
72095;SDS011;59968;51.084;16.748;2023-09-07T14:25:07;6.40;;;4.60;;
72095;SDS011;59968;51.084;16.748;2023-09-07T14:27:35;5.70;;;4.40;;
72095;SDS011;59968;51.084;16.748;2023-09-07T14:30:02;6.70;;;4.50;;
72095;SDS011;59968;51.084;16.748;2023-09-07T14:32:30;6.20;;;4.50;;
72095;SDS011;59968;51.084;16.748;2023-09-07T14:34:57;7.80;;;4.40;;
72095;SDS011;59968;51.084;16.748;2023-09-07T14:37:25;6.30;;;4.00;;
72095;SDS011;59968;51.084;16.748;2023-09-07T14:39:52;6.10;;;4.50;;
72095;SDS011;59968;51.084;16.748;2023-09-07T14:42:24;7.20;;;4.10;;
72095;SDS011;59968;51.084;16.748;2023-09-07T14:44:52;6.50;;;4.70;;
72095;SDS011;59968;51.084;16.748;2023-09-07T14:47:19;5.80;;;4.20;;
72095;SDS011;59968;51.084;16.748;2023-09-07T14:49:52;6.20;;;4.20;;
72095;SDS011;59968;51.084;16.748;2023-09-07T14:52:19;6.20;;;4.50;;
72095;SDS011;59968;51.084;16.748;2023-09-07T14:54:47;6.10;;;4.50;;
72095;SDS011;59968;51.084;16.748;2023-09-07T14:57:15;7.30;;;4.70;;
72095;SDS011;59968;51.084;16.748;2023-09-07T14:59:45;6.50;;;4.30;;
72095;SDS011;59968;51.084;16.748;2023-09-07T15:02:12;6.40;;;4.80;;
72095;SDS011;59968;51.084;16.748;2023-09-07T15:04:40;8.50;;;4.40;;
72095;SDS011;59968;51.084;16.748;2023-09-07T15:07:09;7.10;;;4.30;;
72095;SDS011;59968;51.084;16.748;2023-09-07T15:09:36;6.20;;;4.30;;
72095;SDS011;59968;51.084;16.748;2023-09-07T15:12:04;6.40;;;4.40;;
72095;SDS011;59968;51.084;16.748;2023-09-07T15:14:32;6.40;;;4.30;;
72095;SDS011;59968;51.084;16.748;2023-09-07T15:17:00;9.20;;;4.50;;
72095;SDS011;59968;51.084;16.748;2023-09-07T15:19:27;6.90;;;4.50;;
72095;SDS011;59968;51.084;16.748;2023-09-07T15:21:56;6.30;;;4.50;;
72095;SDS011;59968;51.084;16.748;2023-09-07T15:24:23;6.60;;;4.50;;
72095;SDS011;59968;51.084;16.748;2023-09-07T15:26:51;6.50;;;4.60;;
72095;SDS011;59968;51.084;16.748;2023-09-07T15:29:18;7.30;;;4.70;;
72095;SDS011;59968;51.084;16.748;2023-09-07T15:31:46;6.10;;;4.50;;
72095;SDS011;59968;51.084;16.748;2023-09-07T15:34:14;6.60;;;4.90;;
72095;SDS011;59968;51.084;16.748;2023-09-07T15:36:41;6.40;;;5.00;;
72095;SDS011;59968;51.084;16.748;2023-09-07T15:39:09;7.10;;;4.60;;
72095;SDS011;59968;51.084;16.748;2023-09-07T15:41:37;6.90;;;4.60;;
72095;SDS011;59968;51.084;16.748;2023-09-07T15:44:05;6.40;;;4.50;;
72095;SDS011;59968;51.084;16.748;2023-09-07T15:46:32;7.60;;;4.90;;
72095;SDS011;59968;51.084;16.748;2023-09-07T15:49:00;6.20;;;4.50;;
72095;SDS011;59968;51.084;16.748;2023-09-07T15:51:27;6.30;;;4.40;;
72095;SDS011;59968;51.084;16.748;2023-09-07T15:53:54;7.00;;;4.40;;
72095;SDS011;59968;51.084;16.748;2023-09-07T15:56:22;7.20;;;5.00;;
72095;SDS011;59968;51.084;16.748;2023-09-07T15:58:49;7.90;;;5.20;;
72095;SDS011;59968;51.084;16.748;2023-09-07T16:01:17;7.00;;;5.10;;
72095;SDS011;59968;51.084;16.748;2023-09-07T16:03:45;6.50;;;4.90;;
72095;SDS011;59968;51.084;16.748;2023-09-07T16:06:13;7.20;;;4.80;;
72095;SDS011;59968;51.084;16.748;2023-09-07T16:08:42;9.00;;;4.70;;
72095;SDS011;59968;51.084;16.748;2023-09-07T16:11:10;6.40;;;5.00;;
72095;SDS011;59968;51.084;16.748;2023-09-07T16:13:37;7.70;;;4.70;;
72095;SDS011;59968;51.084;16.748;2023-09-07T16:16:06;7.60;;;4.90;;
72095;SDS011;59968;51.084;16.748;2023-09-07T16:18:34;7.10;;;5.10;;
72095;SDS011;59968;51.084;16.748;2023-09-07T16:21:02;7.80;;;5.30;;
72095;SDS011;59968;51.084;16.748;2023-09-07T16:23:32;7.60;;;5.00;;
72095;SDS011;59968;51.084;16.748;2023-09-07T16:26:01;7.20;;;5.00;;
72095;SDS011;59968;51.084;16.748;2023-09-07T16:28:28;7.30;;;5.00;;
72095;SDS011;59968;51.084;16.748;2023-09-07T16:30:56;7.90;;;5.40;;
72095;SDS011;59968;51.084;16.748;2023-09-07T16:33:23;9.60;;;5.40;;
72095;SDS011;59968;51.084;16.748;2023-09-07T16:35:51;8.00;;;5.20;;
72095;SDS011;59968;51.084;16.748;2023-09-07T16:38:18;7.80;;;5.10;;
72095;SDS011;59968;51.084;16.748;2023-09-07T16:40:45;8.20;;;5.00;;
72095;SDS011;59968;51.084;16.748;2023-09-07T16:43:13;8.50;;;5.50;;
72095;SDS011;59968;51.084;16.748;2023-09-07T16:45:40;7.80;;;5.50;;
72095;SDS011;59968;51.084;16.748;2023-09-07T16:48:08;10.50;;;5.50;;
72095;SDS011;59968;51.084;16.748;2023-09-07T16:50:35;8.70;;;5.30;;
72095;SDS011;59968;51.084;16.748;2023-09-07T16:53:04;7.40;;;5.40;;
72095;SDS011;59968;51.084;16.748;2023-09-07T16:55:31;8.80;;;5.30;;
72095;SDS011;59968;51.084;16.748;2023-09-07T16:57:58;8.80;;;5.10;;
72095;SDS011;59968;51.084;16.748;2023-09-07T17:00:25;8.30;;;5.50;;
72095;SDS011;59968;51.084;16.748;2023-09-07T17:02:53;8.00;;;5.40;;
72095;SDS011;59968;51.084;16.748;2023-09-07T17:05:20;9.00;;;5.80;;
72095;SDS011;59968;51.084;16.748;2023-09-07T17:07:48;7.30;;;5.40;;
72095;SDS011;59968;51.084;16.748;2023-09-07T17:10:15;9.90;;;5.60;;
72095;SDS011;59968;51.084;16.748;2023-09-07T17:12:42;9.20;;;4.90;;
72095;SDS011;59968;51.084;16.748;2023-09-07T17:15:10;8.80;;;5.50;;
72095;SDS011;59968;51.084;16.748;2023-09-07T17:17:37;7.80;;;5.10;;
72095;SDS011;59968;51.084;16.748;2023-09-07T17:20:04;7.70;;;5.50;;
72095;SDS011;59968;51.084;16.748;2023-09-07T17:22:33;8.60;;;6.00;;
72095;SDS011;59968;51.084;16.748;2023-09-07T17:25:00;7.40;;;5.80;;
72095;SDS011;59968;51.084;16.748;2023-09-07T17:27:28;7.70;;;5.40;;
72095;SDS011;59968;51.084;16.748;2023-09-07T17:29:55;8.30;;;5.80;;
72095;SDS011;59968;51.084;16.748;2023-09-07T17:32:23;8.50;;;6.00;;
72095;SDS011;59968;51.084;16.748;2023-09-07T17:34:55;8.20;;;5.70;;
72095;SDS011;59968;51.084;16.748;2023-09-07T17:37:27;11.00;;;7.00;;
72095;SDS011;59968;51.084;16.748;2023-09-07T17:39:56;9.30;;;6.50;;
72095;SDS011;59968;51.084;16.748;2023-09-07T17:42:28;8.40;;;6.10;;
72095;SDS011;59968;51.084;16.748;2023-09-07T17:44:56;8.40;;;5.50;;
72095;SDS011;59968;51.084;16.748;2023-09-07T17:47:24;7.90;;;5.80;;
72095;SDS011;59968;51.084;16.748;2023-09-07T17:49:52;9.50;;;5.60;;
72095;SDS011;59968;51.084;16.748;2023-09-07T17:52:20;7.90;;;5.60;;
72095;SDS011;59968;51.084;16.748;2023-09-07T17:54:49;9.00;;;5.40;;
72095;SDS011;59968;51.084;16.748;2023-09-07T17:57:17;8.90;;;5.80;;
72095;SDS011;59968;51.084;16.748;2023-09-07T17:59:44;10.10;;;6.30;;
72095;SDS011;59968;51.084;16.748;2023-09-07T18:02:21;8.70;;;6.30;;
72095;SDS011;59968;51.084;16.748;2023-09-07T18:04:53;10.10;;;6.50;;
72095;SDS011;59968;51.084;16.748;2023-09-07T18:07:22;9.50;;;6.60;;
72095;SDS011;59968;51.084;16.748;2023-09-07T18:09:50;11.80;;;6.70;;
72095;SDS011;59968;51.084;16.748;2023-09-07T18:12:18;9.90;;;6.80;;
72095;SDS011;59968;51.084;16.748;2023-09-07T18:14:46;10.30;;;6.90;;
72095;SDS011;59968;51.084;16.748;2023-09-07T18:17:14;10.70;;;6.80;;
72095;SDS011;59968;51.084;16.748;2023-09-07T18:19:42;10.20;;;7.00;;
72095;SDS011;59968;51.084;16.748;2023-09-07T18:22:09;10.30;;;6.70;;
72095;SDS011;59968;51.084;16.748;2023-09-07T18:24:36;11.80;;;7.30;;
72095;SDS011;59968;51.084;16.748;2023-09-07T18:27:04;10.50;;;6.70;;
72095;SDS011;59968;51.084;16.748;2023-09-07T18:29:32;10.00;;;6.90;;
72095;SDS011;59968;51.084;16.748;2023-09-07T18:32:00;9.10;;;6.40;;
72095;SDS011;59968;51.084;16.748;2023-09-07T18:34:28;10.90;;;6.60;;
72095;SDS011;59968;51.084;16.748;2023-09-07T18:36:55;9.80;;;7.00;;